createdAt,value
2019-05-25T00:02:46.043Z,100158.91
2019-05-25T00:05:15.315Z,100165.50
2019-05-25T00:07:44.621Z,100160.61
2019-05-25T00:10:14.038Z,100172.12
2019-05-25T00:12:43.334Z,100172.85
2019-05-25T00:15:12.748Z,100165.13
2019-05-25T00:17:42.058Z,100161.54
2019-05-25T00:20:50.683Z,100163.03
2019-05-25T00:23:20.043Z,100167.30
2019-05-25T00:25:49.349Z,100165.58
2019-05-25T00:28:18.688Z,100162.84
2019-05-25T00:30:47.982Z,100170.77
2019-05-25T00:33:17.291Z,100168.12
2019-05-25T00:35:46.600Z,100168.98
2019-05-25T00:38:15.936Z,100165.75
2019-05-25T00:40:45.250Z,100169.63
2019-05-25T00:43:14.554Z,100161.60
2019-05-25T00:45:43.882Z,100159.91
2019-05-25T00:48:13.184Z,100162.19
2019-05-25T00:50:42.495Z,100169.72
2019-05-25T00:53:11.815Z,100171.91
2019-05-25T00:55:41.145Z,100174.91
2019-05-25T00:58:10.466Z,100173.49
2019-05-25T01:00:39.778Z,100172.84
2019-05-25T01:03:09.084Z,100172.28
2019-05-25T01:05:38.415Z,100170.77
2019-05-25T01:08:07.706Z,100173.78
2019-05-25T01:10:37.034Z,100171.50
2019-05-25T01:13:06.339Z,100177.45
2019-05-25T01:15:35.646Z,100180.00
2019-05-25T01:18:05.071Z,100176.41
2019-05-25T01:20:34.367Z,100177.72
2019-05-25T01:23:03.693Z,100185.09
2019-05-25T01:25:33.018Z,100180.57
2019-05-25T01:28:02.324Z,100184.90
2019-05-25T01:30:31.641Z,100184.80
2019-05-25T01:33:00.937Z,100194.42
2019-05-25T01:35:30.249Z,100185.17
2019-05-25T01:37:59.551Z,100181.60
2019-05-25T01:40:28.851Z,100181.88
2019-05-25T01:42:58.190Z,100185.84
2019-05-25T01:45:27.485Z,100186.30
2019-05-25T01:47:56.791Z,100184.52
2019-05-25T01:50:26.101Z,100185.84
2019-05-25T01:52:55.420Z,100184.52
2019-05-25T01:55:24.734Z,100187.92
2019-05-25T01:58:12.973Z,100186.97
2019-05-25T02:00:42.313Z,100184.69
2019-05-25T02:03:11.613Z,100191.30
2019-05-25T02:05:40.948Z,100192.62
2019-05-25T02:08:10.255Z,100191.69
2019-05-25T02:10:39.579Z,100195.76
2019-05-25T02:13:08.881Z,100198.30
2019-05-25T02:15:38.210Z,100193.02
2019-05-25T02:18:07.529Z,100192.16
2019-05-25T02:23:25.114Z,100199.61
2019-05-25T02:25:54.474Z,100199.34
2019-05-25T02:28:23.777Z,100202.95
2019-05-25T02:30:53.092Z,100202.45
2019-05-25T02:33:22.415Z,100207.01
2019-05-25T02:35:51.735Z,100209.65
2019-05-25T02:41:09.393Z,100208.59
2019-05-25T02:43:38.695Z,100209.55
2019-05-25T02:46:08.018Z,100217.39
2019-05-25T02:48:37.318Z,100211.52
2019-05-25T02:51:06.611Z,100211.91
2019-05-25T02:53:35.934Z,100211.41
2019-05-25T02:56:05.295Z,100216.23
2019-05-25T02:58:34.599Z,100219.25
2019-05-25T03:03:59.485Z,100228.41
2019-05-25T03:06:49.223Z,100230.40
2019-05-25T03:09:57.844Z,100228.52
2019-05-25T03:12:37.746Z,100226.61
2019-05-25T03:15:07.423Z,100230.02
2019-05-25T03:17:36.779Z,100230.37
2019-05-25T03:20:45.678Z,100242.67
2019-05-25T03:23:14.985Z,100246.81
2019-05-25T03:25:49.502Z,100237.36
2019-05-25T03:28:15.379Z,100239.05
2019-05-25T03:30:44.648Z,100238.49
2019-05-25T03:33:13.970Z,100240.55
2019-05-25T03:35:43.305Z,100241.48
2019-05-25T03:38:12.669Z,100241.78
2019-05-25T03:40:41.989Z,100246.02
2019-05-25T03:43:11.287Z,100237.52
2019-05-25T03:45:40.609Z,100235.50
2019-05-25T03:48:09.914Z,100241.09
2019-05-25T03:50:39.217Z,100237.85
2019-05-25T03:53:08.551Z,100241.16
2019-05-25T03:55:37.866Z,100238.52
2019-05-25T03:58:07.178Z,100237.45
2019-05-25T04:03:50.880Z,100238.91
2019-05-25T04:06:20.231Z,100240.10
2019-05-25T04:08:49.495Z,100238.18
2019-05-25T04:11:18.870Z,100231.95
2019-05-25T04:13:48.201Z,100240.53
2019-05-25T04:16:17.513Z,100239.10
2019-05-25T04:18:46.816Z,100241.19
2019-05-25T04:21:16.114Z,100249.89
2019-05-25T04:23:45.425Z,100245.91
2019-05-25T04:26:22.463Z,100247.04
2019-05-25T04:28:45.765Z,100247.96
2019-05-25T04:31:15.088Z,100253.21
2019-05-25T04:33:44.370Z,100259.43
2019-05-25T04:36:13.723Z,100263.56
2019-05-25T04:38:43.051Z,100261.47
2019-05-25T04:41:31.358Z,100266.72
2019-05-25T04:44:00.663Z,100259.33
2019-05-25T04:46:29.971Z,100255.30
2019-05-25T04:48:59.297Z,100252.78
2019-05-25T04:51:28.605Z,100249.11
2019-05-25T04:53:57.927Z,100252.45
2019-05-25T04:56:46.115Z,100260.32
2019-05-25T04:59:15.458Z,100254.59
2019-05-25T05:01:56.215Z,100250.61
2019-05-25T05:04:25.601Z,100254.37
2019-05-25T05:09:43.206Z,100255.03
2019-05-25T05:12:12.510Z,100259.05
2019-05-25T05:14:41.872Z,100254.81
2019-05-25T05:17:11.222Z,100258.94
2019-05-25T05:19:59.568Z,100267.42
2019-05-25T05:27:59.208Z,100257.41
2019-05-25T05:30:47.564Z,100256.89
2019-05-25T05:33:16.872Z,100257.45
2019-05-25T05:36:25.481Z,100253.64
2019-05-25T05:39:34.120Z,100262.55
2019-05-25T05:45:17.738Z,100253.63
2019-05-25T05:48:26.382Z,100265.45
2019-05-25T05:51:35.007Z,100270.96
2019-05-25T05:57:18.517Z,100271.36
2019-05-25T05:59:47.812Z,100275.53
2019-05-25T06:02:17.132Z,100274.70
2019-05-25T06:04:46.438Z,100275.59
2019-05-25T06:07:15.763Z,100273.16
2019-05-25T06:09:45.117Z,100272.11
2019-05-25T06:12:14.437Z,100269.63
2019-05-25T06:14:43.805Z,100274.64
2019-05-25T06:17:13.095Z,100266.95
2019-05-25T06:19:42.395Z,100267.94
2019-05-25T06:22:11.723Z,100268.80
2019-05-25T06:24:41.025Z,100272.44
2019-05-25T06:27:10.341Z,100276.42
2019-05-25T06:29:39.668Z,100272.55
2019-05-25T06:32:08.996Z,100270.87
2019-05-25T06:40:02.182Z,100282.02
2019-05-25T06:45:08.331Z,100277.91
2019-05-25T06:47:27.108Z,100285.18
2019-05-25T06:49:56.435Z,100292.30
2019-05-25T06:52:25.746Z,100292.69
2019-05-25T06:54:55.119Z,100293.43
2019-05-25T06:57:24.424Z,100296.80
2019-05-25T07:00:05.945Z,100302.48
2019-05-25T07:02:24.799Z,100304.56
2019-05-25T07:04:54.176Z,100299.34
2019-05-25T07:07:23.515Z,100305.98
2019-05-25T07:09:52.873Z,100306.22
2019-05-25T07:12:22.228Z,100302.11
2019-05-25T07:14:51.644Z,100303.95
2019-05-25T07:17:21.020Z,100305.74
2019-05-25T07:20:02.312Z,100305.03
2019-05-25T07:22:21.372Z,100305.27
2019-05-25T07:24:50.712Z,100310.47
2019-05-25T07:27:20.134Z,100314.48
2019-05-25T07:29:49.453Z,100307.10
2019-05-25T07:32:18.798Z,100312.91
2019-05-25T07:34:48.345Z,100313.14
2019-05-25T07:37:17.656Z,100314.35
2019-05-25T07:39:47.096Z,100316.89
2019-05-25T07:42:19.807Z,100318.59
2019-05-25T07:44:47.436Z,100312.41
2019-05-25T07:47:16.778Z,100316.80
2019-05-25T07:50:05.049Z,100315.46
2019-05-25T07:55:30.452Z,100331.80
2019-05-25T07:58:15.864Z,100334.77
2019-05-25T08:00:41.666Z,100334.76
2019-05-25T08:03:10.997Z,100337.52
2019-05-25T08:05:40.369Z,100331.09
2019-05-25T08:08:09.687Z,100339.77
2019-05-25T08:10:39.043Z,100322.88
2019-05-25T08:13:08.368Z,100334.18
2019-05-25T08:15:37.700Z,100329.67
2019-05-25T08:20:55.349Z,100330.80
2019-05-25T08:23:24.676Z,100335.58
2019-05-25T08:25:54.111Z,100338.28
2019-05-25T08:28:32.142Z,100338.56
2019-05-25T08:30:54.466Z,100343.03
2019-05-25T08:33:29.421Z,100317.61
2019-05-25T08:38:33.972Z,100354.84
2019-05-25T08:41:03.319Z,100352.09
2019-05-25T08:43:32.681Z,100353.20
2019-05-25T08:46:02.014Z,100368.59
2019-05-25T08:48:31.376Z,100358.91
2019-05-25T08:51:00.786Z,100352.47
2019-05-25T08:53:40.751Z,100352.02
2019-05-25T08:56:01.246Z,100354.69
2019-05-25T08:58:47.489Z,100352.02
2019-05-25T09:09:23.662Z,100343.19
2019-05-25T09:12:11.937Z,100354.05
2019-05-25T09:15:20.578Z,100345.40
2019-05-25T09:17:49.911Z,100355.37
2019-05-25T09:22:54.036Z,100346.99
2019-05-25T09:27:58.368Z,100340.98
2019-05-25T09:30:27.824Z,100356.03
2019-05-25T09:35:52.450Z,100352.19
2019-05-25T09:38:21.914Z,100347.89
2019-05-25T09:40:51.311Z,100349.66
2019-05-25T09:43:20.746Z,100355.91
2019-05-25T09:45:50.089Z,100345.19
2019-05-25T09:48:19.453Z,100350.04
2019-05-25T09:50:48.828Z,100351.64
2019-05-25T09:53:18.133Z,100346.60
2019-05-25T09:55:49.904Z,100347.64
2019-05-25T09:58:19.265Z,100354.78
2019-05-25T10:00:48.671Z,100348.19
2019-05-25T10:06:12.102Z,100353.96
2019-05-25T10:08:37.474Z,100342.55
2019-05-25T10:11:06.837Z,100345.83
2019-05-25T10:13:36.172Z,100345.78
2019-05-25T10:16:05.569Z,100351.91
2019-05-25T10:18:34.912Z,100342.47
2019-05-25T10:21:04.231Z,100347.84
2019-05-25T10:23:33.547Z,100348.15
2019-05-25T10:26:02.891Z,100349.41
2019-05-25T10:28:51.262Z,100341.39
2019-05-25T10:31:20.579Z,100351.38
2019-05-25T10:33:49.909Z,100344.83
2019-05-25T10:36:19.220Z,100343.61
2019-05-25T10:38:48.546Z,100355.42
2019-05-25T10:41:17.931Z,100351.67
2019-05-25T10:43:47.320Z,100347.40
2019-05-25T10:46:16.649Z,100338.33
2019-05-25T10:48:45.971Z,100341.26
2019-05-25T10:51:15.338Z,100347.14
2019-05-25T10:53:44.666Z,100341.14
2019-05-25T10:56:14.001Z,100341.00
2019-05-25T10:59:02.374Z,100341.79
2019-05-25T11:01:31.765Z,100346.09
2019-05-25T11:04:01.076Z,100341.23
2019-05-25T11:09:45.294Z,100343.66
2019-05-25T11:12:14.618Z,100344.59
2019-05-25T11:14:44.034Z,100338.28
2019-05-25T11:17:13.345Z,100339.38
2019-05-25T11:19:42.704Z,100341.81
2019-05-25T11:22:12.031Z,100339.55
2019-05-25T11:24:41.447Z,100341.27
2019-05-25T11:27:10.753Z,100342.61
2019-05-25T11:29:40.074Z,100339.14
2019-05-25T11:32:09.437Z,100339.42
2019-05-25T11:34:38.831Z,100343.52
2019-05-25T11:37:08.171Z,100339.17
2019-05-25T11:39:37.564Z,100335.89
2019-05-25T11:42:06.889Z,100330.38
2019-05-25T11:44:36.222Z,100328.91
2019-05-25T11:47:05.534Z,100326.71
2019-05-25T11:49:34.871Z,100319.66
2019-05-25T11:52:23.079Z,100330.13
2019-05-25T11:57:32.869Z,100317.53
2019-05-25T12:00:02.182Z,100324.41
2019-05-25T12:02:31.534Z,100319.37
2019-05-25T12:05:15.149Z,100320.36
2019-05-25T12:07:34.030Z,100319.31
2019-05-25T12:10:23.755Z,100315.02
2019-05-25T12:12:53.156Z,100316.91
2019-05-25T12:15:25.471Z,100325.95
2019-05-25T12:17:54.886Z,100330.16
2019-05-25T12:20:24.298Z,100322.35
2019-05-25T12:22:53.670Z,100324.81
2019-05-25T12:25:23.142Z,100324.59
2019-05-25T12:27:55.428Z,100316.22
2019-05-25T12:31:06.398Z,100320.30
2019-05-25T12:39:46.385Z,100305.69
2019-05-25T12:42:15.725Z,100311.18
2019-05-25T12:47:23.207Z,100310.36
2019-05-25T12:49:52.548Z,100304.40
2019-05-25T12:52:21.953Z,100299.13
2019-05-25T12:54:51.351Z,100296.69
2019-05-25T12:57:59.991Z,100299.94
2019-05-25T13:00:29.396Z,100309.22
2019-05-25T13:02:59.616Z,100305.14
2019-05-25T13:05:34.269Z,100312.73
2019-05-25T13:08:00.953Z,100300.08
2019-05-25T13:10:30.319Z,100308.70
2019-05-25T13:13:02.039Z,100312.72
2019-05-25T13:15:30.739Z,100311.03
2019-05-25T13:18:00.094Z,100312.05
2019-05-25T13:20:29.422Z,100319.93
2019-05-25T13:22:58.744Z,100317.53
2019-05-25T13:25:28.360Z,100316.10
2019-05-25T13:27:57.707Z,100319.26
2019-05-25T13:30:27.066Z,100324.00
2019-05-25T13:32:56.483Z,100318.66
2019-05-25T13:35:25.796Z,100310.83
2019-05-25T13:37:55.148Z,100311.98
2019-05-25T13:40:24.482Z,100311.55
2019-05-25T13:42:53.810Z,100311.32
2019-05-25T13:45:23.140Z,100303.06
2019-05-25T13:47:52.475Z,100309.75
2019-05-25T13:50:21.858Z,100301.30
2019-05-25T13:52:51.185Z,100302.81
2019-05-25T13:55:20.524Z,100303.68
2019-05-25T13:57:49.880Z,100314.56
2019-05-25T14:00:19.295Z,100316.35
2019-05-25T14:02:48.602Z,100318.94
2019-05-25T14:05:36.987Z,100302.30
2019-05-25T14:08:25.781Z,100302.30
2019-05-25T14:10:55.083Z,100314.72
2019-05-25T14:13:43.365Z,100318.37
2019-05-25T14:16:12.725Z,100322.86
2019-05-25T14:18:42.085Z,100318.84
2019-05-25T14:23:46.520Z,100330.62
2019-05-25T14:26:16.147Z,100338.06
2019-05-25T14:28:45.534Z,100337.09
2019-05-25T14:31:14.850Z,100331.16
2019-05-25T14:33:44.197Z,100335.97
2019-05-25T14:36:13.525Z,100332.70
2019-05-25T14:38:42.895Z,100338.47
2019-05-25T14:41:12.308Z,100347.13
2019-05-25T14:43:41.634Z,100337.52
2019-05-25T14:46:26.623Z,100348.28
2019-05-25T14:48:54.596Z,100339.06
2019-05-25T14:51:13.252Z,100337.59
2019-05-25T14:53:42.565Z,100338.20
2019-05-25T14:56:11.894Z,100338.73
2019-05-25T14:58:41.280Z,100340.53
2019-05-25T15:01:10.602Z,100337.35
2019-05-25T15:03:39.914Z,100336.70
2019-05-25T15:06:09.272Z,100340.31
2019-05-25T15:08:38.602Z,100338.13
2019-05-25T15:11:07.950Z,100340.55
2019-05-25T15:13:37.346Z,100346.60
2019-05-25T15:16:25.202Z,100335.89
2019-05-25T15:18:54.542Z,100341.14
2019-05-25T15:21:24.153Z,100334.03
2019-05-25T15:23:53.511Z,100344.45
2019-05-25T15:26:22.845Z,100337.05
2019-05-25T15:28:52.376Z,100336.27
2019-05-25T15:31:21.711Z,100329.73
2019-05-25T15:33:51.022Z,100327.70
2019-05-25T15:36:20.426Z,100328.18
2019-05-25T15:38:49.812Z,100331.39
2019-05-25T15:41:19.193Z,100287.03
2019-05-25T15:43:48.511Z,100345.41
2019-05-25T15:46:17.813Z,100331.12
2019-05-25T15:51:35.465Z,100321.93
2019-05-25T15:54:04.797Z,100322.33
2019-05-25T15:56:34.106Z,100326.81
2019-05-25T15:59:03.426Z,100340.28
2019-05-25T16:01:32.716Z,100333.34
2019-05-25T16:04:02.045Z,100336.02
2019-05-25T16:06:31.356Z,100320.53
2019-05-25T16:09:00.784Z,100336.70
2019-05-25T16:11:32.169Z,100324.34
2019-05-25T16:14:01.195Z,100331.62
2019-05-25T16:16:30.525Z,100327.94
2019-05-25T16:18:59.861Z,100327.23
2019-05-25T16:24:03.775Z,100325.27
2019-05-25T16:26:45.672Z,100327.66
2019-05-25T16:29:04.142Z,100324.36
2019-05-25T16:31:33.480Z,100325.10
2019-05-25T16:34:02.781Z,100318.91
2019-05-25T16:36:32.129Z,100317.92
2019-05-25T16:39:01.439Z,100318.60
2019-05-25T16:41:30.796Z,100315.95
2019-05-25T16:44:00.097Z,100313.84
2019-05-25T16:46:29.429Z,100320.86
2019-05-25T16:48:58.762Z,100314.16
2019-05-25T16:54:16.410Z,100305.34
2019-05-25T16:56:45.779Z,100300.30
2019-05-25T16:59:15.131Z,100306.20
2019-05-25T17:01:48.559Z,100302.84
2019-05-25T17:04:15.520Z,100288.91
2019-05-25T17:06:44.879Z,100300.83
2019-05-25T17:12:02.463Z,100307.80
2019-05-25T17:14:31.826Z,100295.01
2019-05-25T17:17:13.155Z,100296.92
2019-05-25T17:19:32.173Z,100292.91
2019-05-25T17:22:01.473Z,100287.72
2019-05-25T17:24:30.879Z,100289.27
2019-05-25T17:27:00.185Z,100286.62
2019-05-25T17:29:29.480Z,100288.39
2019-05-25T17:31:58.814Z,100281.97
2019-05-25T17:34:28.102Z,100278.44
2019-05-25T17:36:57.432Z,100283.66
2019-05-25T17:39:26.761Z,100282.11
2019-05-25T17:41:57.827Z,100280.25
2019-05-25T17:47:01.685Z,100269.72
2019-05-25T17:49:30.987Z,100272.10
2019-05-25T17:52:00.343Z,100268.24
2019-05-25T17:54:29.651Z,100270.90
2019-05-25T17:56:58.943Z,100268.77
2019-05-25T18:02:16.560Z,100266.84
2019-05-25T18:04:45.918Z,100271.03
2019-05-25T18:07:15.282Z,100263.52
2019-05-25T18:09:44.623Z,100258.39
2019-05-25T18:12:14.087Z,100253.13
2019-05-25T18:14:43.424Z,100247.11
2019-05-25T18:20:22.195Z,100246.52
2019-05-25T18:22:51.697Z,100248.13
2019-05-25T18:25:22.020Z,100260.77
2019-05-25T18:27:51.373Z,100253.42
2019-05-25T18:31:00.075Z,100261.22
2019-05-25T18:36:04.056Z,100238.98
2019-05-25T18:38:33.402Z,100239.20
2019-05-25T18:41:02.702Z,100233.14
2019-05-25T18:46:08.181Z,100233.34
2019-05-25T18:48:37.631Z,100228.05
2019-05-25T18:51:06.948Z,100215.61
2019-05-25T18:53:36.444Z,100214.00
2019-05-25T18:56:05.903Z,100212.96
2019-05-25T18:58:35.189Z,100208.65
2019-05-25T19:01:04.517Z,100211.30
2019-05-25T19:03:33.896Z,100206.57
2019-05-25T19:06:03.189Z,100197.51
2019-05-25T19:11:07.013Z,100188.63
2019-05-25T19:13:36.340Z,100196.31
2019-05-25T19:16:08.678Z,100189.41
2019-05-25T19:18:38.078Z,100185.44
2019-05-25T19:21:07.408Z,100188.68
2019-05-25T19:23:36.746Z,100186.60
2019-05-25T19:26:06.070Z,100177.70
2019-05-25T19:28:35.440Z,100179.62
2019-05-25T19:31:04.753Z,100178.11
2019-05-25T19:33:34.058Z,100183.41
2019-05-25T19:36:03.440Z,100189.45
2019-05-25T19:38:32.748Z,100176.22
2019-05-25T19:41:02.085Z,100173.56
2019-05-25T19:43:31.425Z,100168.48
2019-05-25T19:46:00.750Z,100173.41
2019-05-25T19:48:30.067Z,100176.06
2019-05-25T19:50:59.373Z,100173.98
2019-05-25T19:53:28.686Z,100167.00
2019-05-25T19:55:58.000Z,100168.42
2019-05-25T19:58:27.304Z,100160.95
2019-05-25T20:00:56.621Z,100161.36
2019-05-25T20:03:25.982Z,100149.81
2019-05-25T20:05:55.284Z,100154.38
2019-05-25T20:08:24.592Z,100153.31
2019-05-25T20:10:55.599Z,100148.13
2019-05-25T20:13:24.902Z,100149.81
2019-05-25T20:15:54.219Z,100140.39
2019-05-25T20:18:23.532Z,100144.00
2019-05-25T20:20:52.880Z,100139.42
2019-05-25T20:23:22.217Z,100138.50
2019-05-25T20:25:51.527Z,100130.91
2019-05-25T20:28:20.890Z,100123.75
2019-05-25T20:30:50.196Z,100124.71
2019-05-25T20:33:27.509Z,100123.75
2019-05-25T20:35:50.546Z,100122.27
2019-05-25T20:38:19.854Z,100123.95
2019-05-25T20:40:49.192Z,100127.46
2019-05-25T20:43:18.489Z,100115.66
2019-05-25T20:45:47.816Z,100121.70
2019-05-25T20:48:17.133Z,100117.13
2019-05-25T20:51:05.485Z,100111.37
2019-05-25T20:53:34.801Z,100116.56
2019-05-25T20:56:04.116Z,100121.50
2019-05-25T20:58:33.431Z,100116.02
2019-05-25T21:01:02.856Z,100110.92
2019-05-25T21:03:32.179Z,100110.20
2019-05-25T21:06:01.483Z,100113.88
2019-05-25T21:08:30.805Z,100110.41
2019-05-25T21:11:00.144Z,100099.43
2019-05-25T21:13:29.474Z,100092.81
2019-05-25T21:15:58.978Z,100100.03
2019-05-25T21:18:28.294Z,100097.28
2019-05-25T21:20:57.615Z,100099.43
2019-05-25T21:23:26.962Z,100093.88
2019-05-25T21:25:56.276Z,100093.77
2019-05-25T21:28:25.576Z,100101.20
2019-05-25T21:30:54.871Z,100084.56
2019-05-25T21:33:24.206Z,100090.22
2019-05-25T21:36:07.593Z,100093.26
2019-05-25T21:38:24.528Z,100092.57
2019-05-25T21:40:53.837Z,100085.70
2019-05-25T21:43:23.162Z,100075.47
2019-05-25T21:45:52.464Z,100078.48
2019-05-25T21:48:21.748Z,100084.94
2019-05-25T21:50:51.056Z,100078.80
2019-05-25T21:53:20.388Z,100082.60
2019-05-25T21:55:49.740Z,100077.41
2019-05-25T21:58:19.130Z,100073.08
2019-05-25T22:03:57.119Z,100028.69
2019-05-25T22:06:45.392Z,100062.40
2019-05-25T22:09:14.695Z,100062.30
2019-05-25T22:11:44.061Z,100064.55
2019-05-25T22:14:13.366Z,100062.50
2019-05-25T22:16:42.672Z,100058.23
2019-05-25T22:19:11.978Z,100055.50
2019-05-25T22:21:41.268Z,100067.20
2019-05-25T22:26:45.942Z,100049.17
2019-05-25T22:29:15.267Z,100006.47
2019-05-25T22:31:46.680Z,100063.22
2019-05-25T22:34:15.969Z,100041.91
2019-05-25T22:36:45.303Z,100037.08
2019-05-25T22:39:14.648Z,100036.97
2019-05-25T22:41:43.946Z,100030.95
2019-05-25T22:44:13.252Z,100023.75
2019-05-25T22:49:18.611Z,100023.75
2019-05-25T22:51:47.920Z,100021.70
2019-05-25T22:54:17.580Z,100030.95
2019-05-25T22:56:46.896Z,100023.95
2019-05-25T22:59:16.194Z,100020.80
2019-05-25T23:01:45.477Z,100019.08
2019-05-25T23:04:14.812Z,100016.43
2019-05-25T23:06:57.216Z,100012.95
2019-05-25T23:09:15.147Z,100023.05
2019-05-25T23:11:44.528Z,100018.35
2019-05-25T23:14:13.779Z,100022.32
2019-05-25T23:16:43.093Z,100014.20
2019-05-25T23:19:12.393Z,100007.22
2019-05-25T23:21:41.679Z,99965.44
2019-05-25T23:24:10.979Z,100007.79
2019-05-25T23:26:40.279Z,99997.61
2019-05-25T23:29:09.591Z,99992.31
2019-05-25T23:31:38.878Z,99993.64
2019-05-25T23:34:27.129Z,99983.98
2019-05-25T23:37:11.697Z,99992.31
2019-05-25T23:39:27.448Z,99995.53
2019-05-25T23:41:56.725Z,99977.22
2019-05-25T23:44:26.021Z,99980.63
2019-05-25T23:46:55.341Z,99980.98
2019-05-25T23:49:24.631Z,99972.30
2019-05-25T23:51:53.935Z,99966.28
2019-05-25T23:54:23.244Z,99972.30
2019-05-25T23:56:52.559Z,99956.92
2019-05-25T23:59:21.895Z,99956.73
